sensor_id;sensor_type;location;lat;lon;timestamp;P1;durP1;ratioP1;P2;durP2;ratioP2
25249;SDS011;13201;51.148;13.738;2023-05-10T00:01:04;3.30;;;1.80;;
25249;SDS011;13201;51.148;13.738;2023-05-10T00:03:30;1.80;;;1.40;;
25249;SDS011;13201;51.148;13.738;2023-05-10T00:05:56;1.98;;;1.40;;
25249;SDS011;13201;51.148;13.738;2023-05-10T00:08:22;2.30;;;1.60;;
25249;SDS011;13201;51.148;13.738;2023-05-10T00:10:48;3.10;;;1.70;;
25249;SDS011;13201;51.148;13.738;2023-05-10T00:13:14;4.00;;;1.90;;
25249;SDS011;13201;51.148;13.738;2023-05-10T00:15:39;4.03;;;1.83;;
25249;SDS011;13201;51.148;13.738;2023-05-10T00:18:05;1.60;;;1.40;;
25249;SDS011;13201;51.148;13.738;2023-05-10T00:20:31;2.65;;;1.70;;
25249;SDS011;13201;51.148;13.738;2023-05-10T00:22:56;2.55;;;1.60;;
25249;SDS011;13201;51.148;13.738;2023-05-10T00:25:22;4.13;;;1.60;;
25249;SDS011;13201;51.148;13.738;2023-05-10T00:27:48;5.03;;;1.70;;
25249;SDS011;13201;51.148;13.738;2023-05-10T00:30:14;4.88;;;1.83;;
25249;SDS011;13201;51.148;13.738;2023-05-10T00:32:40;3.55;;;1.90;;
25249;SDS011;13201;51.148;13.738;2023-05-10T00:35:06;4.07;;;1.67;;
25249;SDS011;13201;51.148;13.738;2023-05-10T00:37:32;2.70;;;1.90;;
25249;SDS011;13201;51.148;13.738;2023-05-10T00:39:58;2.55;;;1.48;;
25249;SDS011;13201;51.148;13.738;2023-05-10T00:42:23;4.35;;;1.80;;
25249;SDS011;13201;51.148;13.738;2023-05-10T00:44:49;3.85;;;1.90;;
25249;SDS011;13201;51.148;13.738;2023-05-10T00:47:15;2.35;;;1.80;;
25249;SDS011;13201;51.148;13.738;2023-05-10T00:49:41;1.77;;;1.30;;
25249;SDS011;13201;51.148;13.738;2023-05-10T00:52:08;2.95;;;1.70;;
25249;SDS011;13201;51.148;13.738;2023-05-10T00:54:34;2.50;;;1.70;;
25249;SDS011;13201;51.148;13.738;2023-05-10T00:57:00;2.53;;;1.48;;
25249;SDS011;13201;51.148;13.738;2023-05-10T00:59:26;1.92;;;1.40;;
25249;SDS011;13201;51.148;13.738;2023-05-10T01:01:52;2.60;;;1.50;;
25249;SDS011;13201;51.148;13.738;2023-05-10T01:04:18;2.95;;;1.52;;
25249;SDS011;13201;51.148;13.738;2023-05-10T01:35:58;3.63;;;1.63;;
25249;SDS011;13201;51.148;13.738;2023-05-10T01:38:51;1.50;;;1.40;;
25249;SDS011;13201;51.148;13.738;2023-05-10T01:41:48;3.95;;;1.50;;
25249;SDS011;13201;51.148;13.738;2023-05-10T01:47:20;2.70;;;1.70;;
25249;SDS011;13201;51.148;13.738;2023-05-10T01:49:49;3.97;;;1.40;;
25249;SDS011;13201;51.148;13.738;2023-05-10T01:52:22;3.88;;;1.50;;
25249;SDS011;13201;51.148;13.738;2023-05-10T01:54:57;2.22;;;1.55;;
25249;SDS011;13201;51.148;13.738;2023-05-10T01:57:33;4.72;;;1.98;;
25249;SDS011;13201;51.148;13.738;2023-05-10T02:00:02;2.28;;;1.50;;
25249;SDS011;13201;51.148;13.738;2023-05-10T02:02:29;2.15;;;1.33;;
25249;SDS011;13201;51.148;13.738;2023-05-10T02:04:58;1.88;;;1.40;;
25249;SDS011;13201;51.148;13.738;2023-05-10T02:07:25;2.60;;;1.67;;
25249;SDS011;13201;51.148;13.738;2023-05-10T02:09:53;3.15;;;1.40;;
25249;SDS011;13201;51.148;13.738;2023-05-10T02:12:20;2.38;;;1.60;;
25249;SDS011;13201;51.148;13.738;2023-05-10T02:14:47;1.85;;;1.40;;
25249;SDS011;13201;51.148;13.738;2023-05-10T02:17:13;3.20;;;1.60;;
25249;SDS011;13201;51.148;13.738;2023-05-10T02:19:40;2.35;;;1.25;;
25249;SDS011;13201;51.148;13.738;2023-05-10T02:22:08;1.73;;;1.40;;
25249;SDS011;13201;51.148;13.738;2023-05-10T02:24:35;2.95;;;1.70;;
25249;SDS011;13201;51.148;13.738;2023-05-10T02:29:28;3.72;;;1.65;;
25249;SDS011;13201;51.148;13.738;2023-05-10T02:31:55;4.13;;;1.73;;
25249;SDS011;13201;51.148;13.738;2023-05-10T02:34:21;2.15;;;1.40;;
25249;SDS011;13201;51.148;13.738;2023-05-10T02:36:48;3.10;;;1.40;;
25249;SDS011;13201;51.148;13.738;2023-05-10T02:39:16;2.67;;;1.45;;
25249;SDS011;13201;51.148;13.738;2023-05-10T02:41:44;4.15;;;1.58;;
25249;SDS011;13201;51.148;13.738;2023-05-10T02:44:11;2.30;;;1.60;;
25249;SDS011;13201;51.148;13.738;2023-05-10T02:46:40;5.18;;;1.40;;
25249;SDS011;13201;51.148;13.738;2023-05-10T02:49:06;5.32;;;1.83;;
25249;SDS011;13201;51.148;13.738;2023-05-10T02:51:32;2.10;;;1.45;;
25249;SDS011;13201;51.148;13.738;2023-05-10T02:54:04;4.55;;;1.35;;
25249;SDS011;13201;51.148;13.738;2023-05-10T02:56:38;2.90;;;1.60;;
25249;SDS011;13201;51.148;13.738;2023-05-10T02:59:08;2.25;;;1.52;;
25249;SDS011;13201;51.148;13.738;2023-05-10T03:01:33;4.13;;;1.38;;
25249;SDS011;13201;51.148;13.738;2023-05-10T03:03:59;2.92;;;1.55;;
25249;SDS011;13201;51.148;13.738;2023-05-10T03:06:25;2.08;;;1.40;;
25249;SDS011;13201;51.148;13.738;2023-05-10T03:08:51;2.10;;;1.42;;
25249;SDS011;13201;51.148;13.738;2023-05-10T03:11:24;1.75;;;1.42;;
25249;SDS011;13201;51.148;13.738;2023-05-10T03:16:42;2.20;;;1.48;;
25249;SDS011;13201;51.148;13.738;2023-05-10T03:19:22;2.13;;;1.50;;
25249;SDS011;13201;51.148;13.738;2023-05-10T03:21:52;4.55;;;1.50;;
25249;SDS011;13201;51.148;13.738;2023-05-10T03:24:21;3.30;;;1.58;;
25249;SDS011;13201;51.148;13.738;2023-05-10T03:26:50;5.07;;;1.50;;
25249;SDS011;13201;51.148;13.738;2023-05-10T03:29:20;2.05;;;1.50;;
25249;SDS011;13201;51.148;13.738;2023-05-10T03:31:47;2.33;;;1.45;;
25249;SDS011;13201;51.148;13.738;2023-05-10T03:34:13;3.53;;;1.60;;
25249;SDS011;13201;51.148;13.738;2023-05-10T03:36:39;2.00;;;1.50;;
25249;SDS011;13201;51.148;13.738;2023-05-10T03:39:05;2.15;;;1.60;;
25249;SDS011;13201;51.148;13.738;2023-05-10T03:41:30;3.20;;;1.45;;
25249;SDS011;13201;51.148;13.738;2023-05-10T03:43:56;2.80;;;1.77;;
25249;SDS011;13201;51.148;13.738;2023-05-10T03:46:21;2.13;;;1.42;;
25249;SDS011;13201;51.148;13.738;2023-05-10T03:48:47;2.65;;;1.70;;
25249;SDS011;13201;51.148;13.738;2023-05-10T03:51:13;2.00;;;1.40;;
25249;SDS011;13201;51.148;13.738;2023-05-10T03:53:38;1.83;;;1.50;;
25249;SDS011;13201;51.148;13.738;2023-05-10T03:56:04;1.98;;;1.33;;
25249;SDS011;13201;51.148;13.738;2023-05-10T03:58:30;3.13;;;1.55;;
25249;SDS011;13201;51.148;13.738;2023-05-10T04:00:55;1.95;;;1.40;;
25249;SDS011;13201;51.148;13.738;2023-05-10T04:03:21;2.17;;;1.60;;
25249;SDS011;13201;51.148;13.738;2023-05-10T04:05:47;2.17;;;1.60;;
25249;SDS011;13201;51.148;13.738;2023-05-10T04:08:13;2.63;;;1.60;;
25249;SDS011;13201;51.148;13.738;2023-05-10T04:10:41;2.28;;;1.60;;
25249;SDS011;13201;51.148;13.738;2023-05-10T04:13:07;3.10;;;1.77;;
25249;SDS011;13201;51.148;13.738;2023-05-10T04:15:32;2.50;;;1.60;;
25249;SDS011;13201;51.148;13.738;2023-05-10T04:17:58;1.88;;;1.50;;
25249;SDS011;13201;51.148;13.738;2023-05-10T04:20:23;2.72;;;1.73;;
25249;SDS011;13201;51.148;13.738;2023-05-10T04:22:49;3.67;;;1.40;;
25249;SDS011;13201;51.148;13.738;2023-05-10T04:25:15;3.45;;;1.30;;
25249;SDS011;13201;51.148;13.738;2023-05-10T04:27:40;2.03;;;1.67;;
25249;SDS011;13201;51.148;13.738;2023-05-10T04:30:07;1.92;;;1.52;;
25249;SDS011;13201;51.148;13.738;2023-05-10T04:32:33;6.80;;;1.50;;
25249;SDS011;13201;51.148;13.738;2023-05-10T04:34:58;4.13;;;1.67;;
25249;SDS011;13201;51.148;13.738;2023-05-10T04:37:24;2.22;;;1.40;;
25249;SDS011;13201;51.148;13.738;2023-05-10T04:39:49;3.53;;;1.60;;
25249;SDS011;13201;51.148;13.738;2023-05-10T04:42:15;3.38;;;1.60;;
25249;SDS011;13201;51.148;13.738;2023-05-10T04:44:41;5.97;;;1.83;;
25249;SDS011;13201;51.148;13.738;2023-05-10T04:47:07;2.00;;;1.30;;
25249;SDS011;13201;51.148;13.738;2023-05-10T04:49:33;2.75;;;1.50;;
25249;SDS011;13201;51.148;13.738;2023-05-10T04:51:58;2.38;;;1.52;;
25249;SDS011;13201;51.148;13.738;2023-05-10T04:54:24;2.88;;;1.60;;
25249;SDS011;13201;51.148;13.738;2023-05-10T04:56:50;4.50;;;1.50;;
25249;SDS011;13201;51.148;13.738;2023-05-10T04:59:16;1.70;;;1.30;;
25249;SDS011;13201;51.148;13.738;2023-05-10T05:01:42;3.78;;;1.70;;
25249;SDS011;13201;51.148;13.738;2023-05-10T05:04:08;2.53;;;1.63;;
25249;SDS011;13201;51.148;13.738;2023-05-10T05:06:33;3.25;;;1.60;;
25249;SDS011;13201;51.148;13.738;2023-05-10T05:08:59;3.65;;;1.40;;
25249;SDS011;13201;51.148;13.738;2023-05-10T05:11:25;2.85;;;1.65;;
25249;SDS011;13201;51.148;13.738;2023-05-10T05:13:51;4.80;;;1.55;;
25249;SDS011;13201;51.148;13.738;2023-05-10T05:16:16;2.42;;;1.25;;
25249;SDS011;13201;51.148;13.738;2023-05-10T05:18:42;3.40;;;1.55;;
25249;SDS011;13201;51.148;13.738;2023-05-10T05:21:17;1.60;;;1.30;;
25249;SDS011;13201;51.148;13.738;2023-05-10T05:23:44;3.53;;;1.55;;
25249;SDS011;13201;51.148;13.738;2023-05-10T05:26:10;2.45;;;1.65;;
25249;SDS011;13201;51.148;13.738;2023-05-10T05:28:36;2.67;;;1.30;;
25249;SDS011;13201;51.148;13.738;2023-05-10T05:31:05;2.10;;;1.42;;
25249;SDS011;13201;51.148;13.738;2023-05-10T05:33:32;2.92;;;1.63;;
25249;SDS011;13201;51.148;13.738;2023-05-10T05:36:01;3.23;;;1.63;;
25249;SDS011;13201;51.148;13.738;2023-05-10T05:38:28;3.38;;;1.30;;
25249;SDS011;13201;51.148;13.738;2023-05-10T05:40:54;1.60;;;1.40;;
25249;SDS011;13201;51.148;13.738;2023-05-10T05:43:20;2.05;;;1.65;;
25249;SDS011;13201;51.148;13.738;2023-05-10T05:45:45;2.15;;;1.20;;
25249;SDS011;13201;51.148;13.738;2023-05-10T05:48:11;2.70;;;1.67;;
25249;SDS011;13201;51.148;13.738;2023-05-10T05:50:37;1.95;;;1.42;;
25249;SDS011;13201;51.148;13.738;2023-05-10T05:53:02;6.32;;;1.60;;
25249;SDS011;13201;51.148;13.738;2023-05-10T05:55:28;3.45;;;1.40;;
25249;SDS011;13201;51.148;13.738;2023-05-10T05:57:54;2.00;;;1.50;;
25249;SDS011;13201;51.148;13.738;2023-05-10T06:00:20;2.08;;;1.40;;
25249;SDS011;13201;51.148;13.738;2023-05-10T06:02:46;4.25;;;1.92;;
25249;SDS011;13201;51.148;13.738;2023-05-10T06:05:12;3.92;;;1.75;;
25249;SDS011;13201;51.148;13.738;2023-05-10T06:07:39;2.57;;;1.80;;
25249;SDS011;13201;51.148;13.738;2023-05-10T06:10:07;4.72;;;1.80;;
25249;SDS011;13201;51.148;13.738;2023-05-10T06:12:33;5.15;;;1.52;;
25249;SDS011;13201;51.148;13.738;2023-05-10T06:14:59;1.75;;;1.40;;
25249;SDS011;13201;51.148;13.738;2023-05-10T06:17:25;2.78;;;1.60;;
25249;SDS011;13201;51.148;13.738;2023-05-10T06:19:51;4.57;;;1.60;;
25249;SDS011;13201;51.148;13.738;2023-05-10T06:22:17;3.28;;;1.80;;
25249;SDS011;13201;51.148;13.738;2023-05-10T06:24:42;2.90;;;1.50;;
25249;SDS011;13201;51.148;13.738;2023-05-10T06:27:08;4.53;;;1.83;;
25249;SDS011;13201;51.148;13.738;2023-05-10T06:29:34;3.70;;;1.55;;
25249;SDS011;13201;51.148;13.738;2023-05-10T06:31:59;2.33;;;1.73;;
25249;SDS011;13201;51.148;13.738;2023-05-10T06:34:25;1.95;;;1.30;;
25249;SDS011;13201;51.148;13.738;2023-05-10T06:36:51;1.88;;;1.50;;
25249;SDS011;13201;51.148;13.738;2023-05-10T06:39:16;3.63;;;1.63;;
25249;SDS011;13201;51.148;13.738;2023-05-10T06:41:42;7.13;;;1.80;;
25249;SDS011;13201;51.148;13.738;2023-05-10T06:44:08;5.03;;;1.65;;
25249;SDS011;13201;51.148;13.738;2023-05-10T06:46:34;3.65;;;1.70;;
25249;SDS011;13201;51.148;13.738;2023-05-10T06:49:00;2.72;;;1.58;;
25249;SDS011;13201;51.148;13.738;2023-05-10T06:51:25;3.35;;;1.65;;
25249;SDS011;13201;51.148;13.738;2023-05-10T06:53:51;2.35;;;1.58;;
25249;SDS011;13201;51.148;13.738;2023-05-10T06:56:17;4.88;;;1.38;;
25249;SDS011;13201;51.148;13.738;2023-05-10T06:58:42;3.10;;;1.70;;
25249;SDS011;13201;51.148;13.738;2023-05-10T07:01:08;2.90;;;1.52;;
25249;SDS011;13201;51.148;13.738;2023-05-10T07:03:33;4.88;;;1.73;;
25249;SDS011;13201;51.148;13.738;2023-05-10T07:06:00;3.45;;;1.50;;
25249;SDS011;13201;51.148;13.738;2023-05-10T07:08:28;3.45;;;1.90;;
25249;SDS011;13201;51.148;13.738;2023-05-10T07:10:59;2.40;;;1.65;;
25249;SDS011;13201;51.148;13.738;2023-05-10T07:13:28;2.08;;;1.42;;
25249;SDS011;13201;51.148;13.738;2023-05-10T07:15:55;4.90;;;1.58;;
25249;SDS011;13201;51.148;13.738;2023-05-10T07:18:21;3.05;;;1.60;;
25249;SDS011;13201;51.148;13.738;2023-05-10T07:20:46;2.72;;;1.50;;
25249;SDS011;13201;51.148;13.738;2023-05-10T07:23:12;3.05;;;1.70;;
25249;SDS011;13201;51.148;13.738;2023-05-10T07:25:38;3.83;;;1.85;;
25249;SDS011;13201;51.148;13.738;2023-05-10T07:28:03;6.28;;;3.58;;
25249;SDS011;13201;51.148;13.738;2023-05-10T07:30:29;3.80;;;2.10;;
25249;SDS011;13201;51.148;13.738;2023-05-10T07:32:56;4.07;;;1.73;;
25249;SDS011;13201;51.148;13.738;2023-05-10T07:35:21;5.80;;;1.87;;
25249;SDS011;13201;51.148;13.738;2023-05-10T07:37:47;5.18;;;1.80;;
25249;SDS011;13201;51.148;13.738;2023-05-10T07:40:13;5.65;;;2.00;;
25249;SDS011;13201;51.148;13.738;2023-05-10T07:42:38;2.72;;;1.70;;
25249;SDS011;13201;51.148;13.738;2023-05-10T07:45:04;3.55;;;1.80;;
25249;SDS011;13201;51.148;13.738;2023-05-10T07:47:30;2.40;;;1.73;;
25249;SDS011;13201;51.148;13.738;2023-05-10T07:49:56;4.07;;;1.90;;
25249;SDS011;13201;51.148;13.738;2023-05-10T07:52:21;3.20;;;1.85;;
25249;SDS011;13201;51.148;13.738;2023-05-10T07:54:47;2.35;;;1.70;;
25249;SDS011;13201;51.148;13.738;2023-05-10T07:57:13;4.05;;;2.10;;
25249;SDS011;13201;51.148;13.738;2023-05-10T07:59:40;2.42;;;1.75;;
25249;SDS011;13201;51.148;13.738;2023-05-10T08:02:06;3.92;;;1.63;;
25249;SDS011;13201;51.148;13.738;2023-05-10T08:04:31;4.05;;;1.65;;
25249;SDS011;13201;51.148;13.738;2023-05-10T08:06:57;2.97;;;2.00;;
25249;SDS011;13201;51.148;13.738;2023-05-10T08:09:23;8.93;;;3.90;;
25249;SDS011;13201;51.148;13.738;2023-05-10T08:11:49;3.70;;;2.17;;
25249;SDS011;13201;51.148;13.738;2023-05-10T08:14:15;1.95;;;1.73;;
25249;SDS011;13201;51.148;13.738;2023-05-10T08:16:41;2.88;;;1.92;;
25249;SDS011;13201;51.148;13.738;2023-05-10T08:19:07;3.30;;;2.17;;
25249;SDS011;13201;51.148;13.738;2023-05-10T08:21:33;2.88;;;1.85;;
25249;SDS011;13201;51.148;13.738;2023-05-10T08:23:58;2.78;;;1.95;;
25249;SDS011;13201;51.148;13.738;2023-05-10T08:26:24;3.42;;;2.05;;
25249;SDS011;13201;51.148;13.738;2023-05-10T08:28:50;2.40;;;2.00;;
25249;SDS011;13201;51.148;13.738;2023-05-10T08:31:16;4.65;;;2.00;;
25249;SDS011;13201;51.148;13.738;2023-05-10T08:33:42;3.45;;;2.00;;
25249;SDS011;13201;51.148;13.738;2023-05-10T08:36:08;2.75;;;1.98;;
25249;SDS011;13201;51.148;13.738;2023-05-10T08:38:34;6.50;;;2.28;;
25249;SDS011;13201;51.148;13.738;2023-05-10T08:41:00;5.22;;;2.20;;
25249;SDS011;13201;51.148;13.738;2023-05-10T08:43:27;5.43;;;1.92;;
25249;SDS011;13201;51.148;13.738;2023-05-10T08:48:24;2.42;;;2.10;;
25249;SDS011;13201;51.148;13.738;2023-05-10T08:50:51;4.20;;;2.23;;
25249;SDS011;13201;51.148;13.738;2023-05-10T08:53:22;3.83;;;2.00;;
25249;SDS011;13201;51.148;13.738;2023-05-10T08:55:52;4.00;;;1.92;;
25249;SDS011;13201;51.148;13.738;2023-05-10T08:58:17;2.00;;;1.70;;
25249;SDS011;13201;51.148;13.738;2023-05-10T09:00:44;3.50;;;2.00;;
25249;SDS011;13201;51.148;13.738;2023-05-10T09:03:10;7.73;;;3.20;;
25249;SDS011;13201;51.148;13.738;2023-05-10T09:05:36;5.43;;;1.83;;
25249;SDS011;13201;51.148;13.738;2023-05-10T09:08:03;2.90;;;2.05;;
25249;SDS011;13201;51.148;13.738;2023-05-10T09:10:29;6.25;;;1.90;;
25249;SDS011;13201;51.148;13.738;2023-05-10T09:12:56;3.05;;;2.10;;
25249;SDS011;13201;51.148;13.738;2023-05-10T09:15:22;3.45;;;2.20;;
25249;SDS011;13201;51.148;13.738;2023-05-10T09:17:48;3.35;;;2.05;;
25249;SDS011;13201;51.148;13.738;2023-05-10T09:20:15;3.05;;;2.17;;
25249;SDS011;13201;51.148;13.738;2023-05-10T09:22:42;7.30;;;2.20;;
25249;SDS011;13201;51.148;13.738;2023-05-10T09:25:08;7.60;;;2.17;;
25249;SDS011;13201;51.148;13.738;2023-05-10T09:27:36;2.65;;;2.30;;
25249;SDS011;13201;51.148;13.738;2023-05-10T09:30:04;3.42;;;2.30;;
25249;SDS011;13201;51.148;13.738;2023-05-10T09:32:41;2.05;;;1.85;;
25249;SDS011;13201;51.148;13.738;2023-05-10T09:35:15;3.58;;;2.20;;
25249;SDS011;13201;51.148;13.738;2023-05-10T09:37:43;3.13;;;2.13;;
25249;SDS011;13201;51.148;13.738;2023-05-10T09:40:12;4.63;;;2.22;;
25249;SDS011;13201;51.148;13.738;2023-05-10T09:42:42;2.90;;;2.15;;
25249;SDS011;13201;51.148;13.738;2023-05-10T09:45:17;4.30;;;2.20;;
25249;SDS011;13201;51.148;13.738;2023-05-10T09:47:42;3.75;;;2.20;;
25249;SDS011;13201;51.148;13.738;2023-05-10T09:50:09;2.35;;;2.00;;
25249;SDS011;13201;51.148;13.738;2023-05-10T09:52:48;3.47;;;2.08;;
25249;SDS011;13201;51.148;13.738;2023-05-10T09:55:24;4.05;;;2.20;;
25249;SDS011;13201;51.148;13.738;2023-05-10T09:58:00;4.50;;;2.25;;
25249;SDS011;13201;51.148;13.738;2023-05-10T10:00:26;6.20;;;2.10;;
25249;SDS011;13201;51.148;13.738;2023-05-10T10:02:57;3.00;;;1.80;;
25249;SDS011;13201;51.148;13.738;2023-05-10T10:05:30;2.60;;;1.98;;
25249;SDS011;13201;51.148;13.738;2023-05-10T10:08:02;3.75;;;1.90;;
25249;SDS011;13201;51.148;13.738;2023-05-10T10:10:28;3.90;;;2.00;;
25249;SDS011;13201;51.148;13.738;2023-05-10T10:12:55;6.00;;;2.13;;
25249;SDS011;13201;51.148;13.738;2023-05-10T10:15:21;4.57;;;2.25;;
25249;SDS011;13201;51.148;13.738;2023-05-10T10:17:48;5.13;;;2.63;;
25249;SDS011;13201;51.148;13.738;2023-05-10T10:20:15;7.88;;;4.97;;
25249;SDS011;13201;51.148;13.738;2023-05-10T10:22:41;3.78;;;2.58;;
25249;SDS011;13201;51.148;13.738;2023-05-10T10:25:09;4.43;;;2.42;;
25249;SDS011;13201;51.148;13.738;2023-05-10T10:30:21;3.17;;;2.08;;
25249;SDS011;13201;51.148;13.738;2023-05-10T10:35:28;3.13;;;2.20;;
25249;SDS011;13201;51.148;13.738;2023-05-10T10:37:54;3.55;;;2.30;;
25249;SDS011;13201;51.148;13.738;2023-05-10T10:40:27;3.63;;;2.30;;
25249;SDS011;13201;51.148;13.738;2023-05-10T10:42:54;2.72;;;2.10;;
25249;SDS011;13201;51.148;13.738;2023-05-10T10:45:20;4.05;;;2.00;;
25249;SDS011;13201;51.148;13.738;2023-05-10T10:47:47;4.53;;;2.65;;
25249;SDS011;13201;51.148;13.738;2023-05-10T10:50:13;3.63;;;2.53;;
25249;SDS011;13201;51.148;13.738;2023-05-10T10:52:41;4.57;;;2.40;;
25249;SDS011;13201;51.148;13.738;2023-05-10T10:55:09;4.05;;;2.50;;
25249;SDS011;13201;51.148;13.738;2023-05-10T11:05:44;4.50;;;2.17;;
25249;SDS011;13201;51.148;13.738;2023-05-10T11:11:06;4.03;;;2.60;;
25249;SDS011;13201;51.148;13.738;2023-05-10T11:13:39;3.80;;;2.25;;
25249;SDS011;13201;51.148;13.738;2023-05-10T11:18:35;5.10;;;2.60;;
25249;SDS011;13201;51.148;13.738;2023-05-10T11:21:02;6.25;;;2.53;;
25249;SDS011;13201;51.148;13.738;2023-05-10T11:26:06;3.42;;;2.45;;
25249;SDS011;13201;51.148;13.738;2023-05-10T11:28:45;6.00;;;2.22;;
25249;SDS011;13201;51.148;13.738;2023-05-10T11:31:18;3.08;;;2.47;;
25249;SDS011;13201;51.148;13.738;2023-05-10T11:33:49;3.88;;;2.28;;
25249;SDS011;13201;51.148;13.738;2023-05-10T11:36:20;7.18;;;2.50;;
25249;SDS011;13201;51.148;13.738;2023-05-10T11:38:52;2.78;;;2.33;;
25249;SDS011;13201;51.148;13.738;2023-05-10T11:41:19;7.28;;;2.50;;
25249;SDS011;13201;51.148;13.738;2023-05-10T11:43:51;3.03;;;2.30;;
25249;SDS011;13201;51.148;13.738;2023-05-10T11:46:19;4.60;;;2.30;;
25249;SDS011;13201;51.148;13.738;2023-05-10T11:48:47;4.63;;;2.70;;
25249;SDS011;13201;51.148;13.738;2023-05-10T11:51:19;6.60;;;2.10;;
25249;SDS011;13201;51.148;13.738;2023-05-10T11:53:49;5.03;;;2.40;;
25249;SDS011;13201;51.148;13.738;2023-05-10T11:56:16;8.20;;;2.58;;
25249;SDS011;13201;51.148;13.738;2023-05-10T11:58:41;3.72;;;2.40;;
25249;SDS011;13201;51.148;13.738;2023-05-10T12:01:07;5.47;;;2.65;;
25249;SDS011;13201;51.148;13.738;2023-05-10T12:03:35;3.78;;;2.53;;
25249;SDS011;13201;51.148;13.738;2023-05-10T12:06:01;4.60;;;2.90;;
25249;SDS011;13201;51.148;13.738;2023-05-10T12:08:28;4.70;;;2.50;;
25249;SDS011;13201;51.148;13.738;2023-05-10T12:11:03;5.30;;;2.70;;
25249;SDS011;13201;51.148;13.738;2023-05-10T12:13:31;2.72;;;2.17;;
25249;SDS011;13201;51.148;13.738;2023-05-10T12:15:57;6.28;;;2.60;;
25249;SDS011;13201;51.148;13.738;2023-05-10T12:18:23;3.47;;;2.42;;
25249;SDS011;13201;51.148;13.738;2023-05-10T12:20:52;2.97;;;2.20;;
25249;SDS011;13201;51.148;13.738;2023-05-10T12:23:18;4.10;;;2.58;;
25249;SDS011;13201;51.148;13.738;2023-05-10T12:28:11;5.03;;;2.80;;
25249;SDS011;13201;51.148;13.738;2023-05-10T12:30:37;3.10;;;2.50;;
25249;SDS011;13201;51.148;13.738;2023-05-10T12:38:25;3.75;;;2.33;;
25249;SDS011;13201;51.148;13.738;2023-05-10T12:40:58;2.95;;;2.08;;
25249;SDS011;13201;51.148;13.738;2023-05-10T12:43:25;6.93;;;2.60;;
25249;SDS011;13201;51.148;13.738;2023-05-10T12:45:50;3.78;;;2.00;;
25249;SDS011;13201;51.148;13.738;2023-05-10T12:48:16;3.83;;;2.80;;
25249;SDS011;13201;51.148;13.738;2023-05-10T12:50:42;3.33;;;2.30;;
25249;SDS011;13201;51.148;13.738;2023-05-10T12:53:07;4.03;;;2.30;;
25249;SDS011;13201;51.148;13.738;2023-05-10T12:55:33;2.95;;;2.55;;
25249;SDS011;13201;51.148;13.738;2023-05-10T12:57:59;3.77;;;2.83;;
25249;SDS011;13201;51.148;13.738;2023-05-10T13:00:25;4.03;;;2.10;;
25249;SDS011;13201;51.148;13.738;2023-05-10T13:02:51;4.63;;;2.37;;
25249;SDS011;13201;51.148;13.738;2023-05-10T13:05:17;2.80;;;2.30;;
25249;SDS011;13201;51.148;13.738;2023-05-10T13:07:42;3.87;;;2.50;;
25249;SDS011;13201;51.148;13.738;2023-05-10T13:10:09;5.85;;;2.85;;
25249;SDS011;13201;51.148;13.738;2023-05-10T13:12:35;4.32;;;2.38;;
25249;SDS011;13201;51.148;13.738;2023-05-10T13:15:01;4.23;;;2.30;;
25249;SDS011;13201;51.148;13.738;2023-05-10T13:19:53;3.30;;;2.37;;
25249;SDS011;13201;51.148;13.738;2023-05-10T13:22:19;5.77;;;2.60;;
25249;SDS011;13201;51.148;13.738;2023-05-10T13:24:44;2.33;;;2.10;;
25249;SDS011;13201;51.148;13.738;2023-05-10T13:27:10;3.05;;;2.30;;
25249;SDS011;13201;51.148;13.738;2023-05-10T13:29:36;6.93;;;2.63;;
25249;SDS011;13201;51.148;13.738;2023-05-10T13:32:01;2.83;;;2.07;;
25249;SDS011;13201;51.148;13.738;2023-05-10T13:34:27;3.00;;;2.23;;
25249;SDS011;13201;51.148;13.738;2023-05-10T13:36:53;6.67;;;2.90;;
25249;SDS011;13201;51.148;13.738;2023-05-10T13:39:20;5.25;;;2.63;;
25249;SDS011;13201;51.148;13.738;2023-05-10T13:41:46;5.00;;;2.40;;
25249;SDS011;13201;51.148;13.738;2023-05-10T13:44:13;9.20;;;2.43;;
25249;SDS011;13201;51.148;13.738;2023-05-10T13:46:40;4.40;;;2.85;;
25249;SDS011;13201;51.148;13.738;2023-05-10T13:49:07;4.57;;;3.03;;
25249;SDS011;13201;51.148;13.738;2023-05-10T13:53:59;4.88;;;2.33;;
25249;SDS011;13201;51.148;13.738;2023-05-10T13:56:25;5.07;;;2.73;;
25249;SDS011;13201;51.148;13.738;2023-05-10T13:58:51;3.47;;;2.50;;
25249;SDS011;13201;51.148;13.738;2023-05-10T14:01:17;4.10;;;2.63;;
25249;SDS011;13201;51.148;13.738;2023-05-10T14:03:43;3.17;;;2.28;;
25249;SDS011;13201;51.148;13.738;2023-05-10T14:06:08;6.30;;;2.50;;
25249;SDS011;13201;51.148;13.738;2023-05-10T14:08:34;3.53;;;2.30;;
25249;SDS011;13201;51.148;13.738;2023-05-10T14:11:00;3.15;;;2.60;;
25249;SDS011;13201;51.148;13.738;2023-05-10T14:13:26;4.37;;;2.77;;
25249;SDS011;13201;51.148;13.738;2023-05-10T14:15:53;4.33;;;2.50;;
25249;SDS011;13201;51.148;13.738;2023-05-10T14:18:19;4.78;;;2.60;;
25249;SDS011;13201;51.148;13.738;2023-05-10T14:20:45;5.10;;;2.90;;
25249;SDS011;13201;51.148;13.738;2023-05-10T14:23:10;3.13;;;2.50;;
25249;SDS011;13201;51.148;13.738;2023-05-10T14:25:37;8.10;;;3.17;;
25249;SDS011;13201;51.148;13.738;2023-05-10T14:28:05;2.90;;;2.30;;
25249;SDS011;13201;51.148;13.738;2023-05-10T14:30:31;6.07;;;2.63;;
25249;SDS011;13201;51.148;13.738;2023-05-10T14:35:23;5.65;;;2.70;;
25249;SDS011;13201;51.148;13.738;2023-05-10T14:37:49;3.03;;;2.20;;
25249;SDS011;13201;51.148;13.738;2023-05-10T14:40:15;5.95;;;2.58;;
25249;SDS011;13201;51.148;13.738;2023-05-10T14:42:42;2.67;;;2.40;;
25249;SDS011;13201;51.148;13.738;2023-05-10T14:45:08;3.45;;;2.70;;
25249;SDS011;13201;51.148;13.738;2023-05-10T14:47:35;6.55;;;3.22;;
25249;SDS011;13201;51.148;13.738;2023-05-10T14:50:01;4.37;;;2.50;;
25249;SDS011;13201;51.148;13.738;2023-05-10T14:52:27;4.28;;;2.88;;
25249;SDS011;13201;51.148;13.738;2023-05-10T14:54:53;5.73;;;2.53;;
25249;SDS011;13201;51.148;13.738;2023-05-10T14:57:18;6.60;;;2.85;;
25249;SDS011;13201;51.148;13.738;2023-05-10T14:59:44;5.30;;;2.63;;
25249;SDS011;13201;51.148;13.738;2023-05-10T15:02:10;3.60;;;2.65;;
25249;SDS011;13201;51.148;13.738;2023-05-10T15:04:36;4.73;;;2.70;;
25249;SDS011;13201;51.148;13.738;2023-05-10T15:07:02;3.50;;;2.80;;
25249;SDS011;13201;51.148;13.738;2023-05-10T15:09:28;4.17;;;2.17;;
25249;SDS011;13201;51.148;13.738;2023-05-10T15:11:54;3.00;;;2.50;;
25249;SDS011;13201;51.148;13.738;2023-05-10T15:14:19;5.00;;;2.40;;
25249;SDS011;13201;51.148;13.738;2023-05-10T15:16:45;3.38;;;2.58;;
25249;SDS011;13201;51.148;13.738;2023-05-10T15:19:11;12.83;;;2.50;;
25249;SDS011;13201;51.148;13.738;2023-05-10T15:21:37;5.93;;;2.38;;
25249;SDS011;13201;51.148;13.738;2023-05-10T15:24:07;3.35;;;1.90;;
25249;SDS011;13201;51.148;13.738;2023-05-10T15:26:33;3.33;;;2.10;;
25249;SDS011;13201;51.148;13.738;2023-05-10T15:28:59;4.05;;;2.60;;
25249;SDS011;13201;51.148;13.738;2023-05-10T15:31:24;4.87;;;2.60;;
25249;SDS011;13201;51.148;13.738;2023-05-10T15:33:50;4.47;;;2.50;;
25249;SDS011;13201;51.148;13.738;2023-05-10T15:36:16;4.18;;;2.38;;
25249;SDS011;13201;51.148;13.738;2023-05-10T15:38:43;3.20;;;2.42;;
25249;SDS011;13201;51.148;13.738;2023-05-10T15:41:09;6.32;;;2.50;;
25249;SDS011;13201;51.148;13.738;2023-05-10T15:43:34;4.10;;;2.30;;
25249;SDS011;13201;51.148;13.738;2023-05-10T15:46:00;4.78;;;2.55;;
25249;SDS011;13201;51.148;13.738;2023-05-10T15:48:26;5.38;;;3.20;;